Time;durP1;ratioP1;P1;durP2;ratioP2;P2;SDS_P1;SDS_P2;PMS_P1;PMS_P2;Temp;Humidity;BMP_temperature;BMP_pressure;BME280_temperature;BME280_humidity;BME280_pressure;Samples;Min_cycle;Max_cycle;Signal;HPM_P1;HPM_P2
2021/07/20 00:02:41;;;;;;;11.27;7.43;;;;;;;;;;143728;652;46023;-89
2021/07/20 00:05:24;;;;;;;11.32;5.87;;;;;;;;;;143731;573;46012;-89
2021/07/20 00:08:05;;;;;;;8.98;6.47;;;;;;;;;;143720;606;46021;-90
2021/07/20 00:11:02;;;;;;;10.65;6.07;;;;;;;;;;143727;641;46020;-88
2021/07/20 00:13:32;;;;;;;11.95;6.62;;;;;;;;;;143726;618;46045;-89
2021/07/20 00:16:02;;;;;;;12.93;6.32;;;;;;;;;;143727;566;46021;-87
2021/07/20 00:18:39;;;;;;;11.98;6.75;;;;;;;;;;143726;564;47020;-88
2021/07/20 00:21:11;;;;;;;9.85;6.80;;;;;;;;;;143728;585;46012;-90
2021/07/20 00:23:40;;;;;;;10.88;7.18;;;;;;;;;;143724;605;47021;-88
2021/07/20 00:26:08;;;;;;;9.60;7.75;;;;;;;;;;143727;565;46915;-90
2021/07/20 00:28:34;;;;;;;11.95;8.65;;;;;;;;;;143725;569;46020;-87
2021/07/20 00:31:01;;;;;;;12.90;9.10;;;;;;;;;;143728;583;46043;-89
2021/07/20 00:33:29;;;;;;;14.05;8.98;;;;;;;;;;143721;602;46910;-85
2021/07/20 00:35:56;;;;;;;15.23;8.30;;;;;;;;;;143727;617;46012;-89
2021/07/20 00:38:25;;;;;;;14.38;9.50;;;;;;;;;;143724;594;46021;-87
2021/07/20 00:40:52;;;;;;;13.90;8.30;;;;;;;;;;143729;565;46018;-88
2021/07/20 00:43:21;;;;;;;9.73;7.47;;;;;;;;;;143723;603;47020;-89
2021/07/20 00:45:48;;;;;;;11.12;8.10;;;;;;;;;;143724;632;47013;-87
2021/07/20 00:48:17;;;;;;;11.40;7.50;;;;;;;;;;143724;582;47020;-89
2021/07/20 00:50:46;;;;;;;8.60;7.60;;;;;;;;;;143728;573;46012;-89
2021/07/20 00:53:13;;;;;;;10.73;6.68;;;;;;;;;;143724;570;47020;-92
2021/07/20 00:55:42;;;;;;;9.43;6.93;;;;;;;;;;143726;572;46020;-89
2021/07/20 00:58:12;;;;;;;9.68;7.10;;;;;;;;;;143720;578;47020;-88
2021/07/20 01:00:40;;;;;;;13.52;7.65;;;;;;;;;;143730;567;46013;-89
2021/07/20 01:03:11;;;;;;;13.18;7.45;;;;;;;;;;143724;616;47020;-90
2021/07/20 01:05:38;;;;;;;10.05;7.30;;;;;;;;;;143727;593;46012;-90
2021/07/20 01:08:06;;;;;;;11.40;6.78;;;;;;;;;;143726;621;46021;-91
2021/07/20 01:10:37;;;;;;;14.38;7.68;;;;;;;;;;143729;581;46012;-89
2021/07/20 01:13:07;;;;;;;9.10;6.60;;;;;;;;;;143728;578;47022;-89
2021/07/20 01:15:36;;;;;;;9.90;6.95;;;;;;;;;;143726;571;46021;-90
2021/07/20 01:18:05;;;;;;;9.50;6.50;;;;;;;;;;143725;609;47021;-88
2021/07/20 01:20:33;;;;;;;9.90;6.57;;;;;;;;;;143728;573;46012;-91
2021/07/20 01:23:07;;;;;;;9.18;6.03;;;;;;;;;;143722;566;47022;-90
2021/07/20 01:25:35;;;;;;;7.12;6.03;;;;;;;;;;143728;611;46012;-91
2021/07/20 01:28:06;;;;;;;13.70;6.12;;;;;;;;;;143728;564;46020;-90
2021/07/20 01:30:37;;;;;;;9.85;6.62;;;;;;;;;;143729;583;46013;-89
2021/07/20 01:33:06;;;;;;;9.38;6.47;;;;;;;;;;143725;636;47020;-91
2021/07/20 01:35:34;;;;;;;10.82;6.50;;;;;;;;;;143725;573;46012;-91
2021/07/20 01:38:05;;;;;;;7.00;6.15;;;;;;;;;;143726;633;47021;-89
2021/07/20 01:40:32;;;;;;;9.57;7.45;;;;;;;;;;143732;574;46018;-92
2021/07/20 01:43:02;;;;;;;9.85;7.32;;;;;;;;;;143725;595;47022;-89
2021/07/20 01:45:36;;;;;;;9.32;7.85;;;;;;;;;;143729;564;46013;-91
2021/07/20 01:48:07;;;;;;;;;;;;;;;;;;143726;981;47020;-89
2021/07/20 01:50:35;;;;;;;10.68;7.00;;;;;;;;;;143733;578;46020;-90
2021/07/20 01:53:04;;;;;;;10.82;7.37;;;;;;;;;;143723;600;47022;-91
2021/07/20 01:55:31;;;;;;;9.43;7.05;;;;;;;;;;143726;564;47010;-90
2021/07/20 01:57:59;;;;;;;11.52;6.75;;;;;;;;;;143723;613;47020;-91
2021/07/20 02:00:26;;;;;;;14.38;8.10;;;;;;;;;;143729;623;46018;-89
2021/07/20 02:09:27;;;;;;;9.40;6.65;;;;;;;;;;143728;585;46021;-90
2021/07/20 02:11:55;;;;;;;9.63;6.30;;;;;;;;;;143732;570;46010;-89
2021/07/20 02:14:27;;;;;;;8.40;6.00;;;;;;;;;;143719;639;47022;-90
2021/07/20 02:16:56;;;;;;;9.15;6.05;;;;;;;;;;143727;590;46012;-89
2021/07/20 02:19:47;;;;;;;12.37;6.35;;;;;;;;;;143725;612;46020;-90
2021/07/20 02:22:18;;;;;;;8.48;5.65;;;;;;;;;;143728;567;46013;-89
2021/07/20 02:24:47;;;;;;;14.10;6.82;;;;;;;;;;143726;579;47023;-92
2021/07/20 02:27:15;;;;;;;11.95;6.22;;;;;;;;;;143728;578;46012;-89
2021/07/20 02:29:44;;;;;;;8.25;6.10;;;;;;;;;;143725;566;46021;-89
2021/07/20 02:32:12;;;;;;;12.18;5.80;;;;;;;;;;143728;569;46012;-90
2021/07/20 02:34:39;;;;;;;9.77;5.62;;;;;;;;;;143725;569;46022;-90
2021/07/20 02:37:07;;;;;;;11.55;6.12;;;;;;;;;;143727;579;46013;-88
2021/07/20 02:39:35;;;;;;;9.10;6.03;;;;;;;;;;143719;594;47020;-90
2021/07/20 02:42:03;;;;;;;12.02;5.60;;;;;;;;;;143726;648;47020;-92
2021/07/20 02:44:34;;;;;;;8.95;6.68;;;;;;;;;;143726;573;46022;-91
2021/07/20 02:47:03;;;;;;;8.02;5.60;;;;;;;;;;143726;686;46012;-91
2021/07/20 02:49:31;;;;;;;7.22;5.82;;;;;;;;;;143727;578;46020;-89
2021/07/20 02:51:59;;;;;;;7.80;6.32;;;;;;;;;;143730;613;46020;-89
2021/07/20 02:54:30;;;;;;;12.07;6.93;;;;;;;;;;143728;639;46014;-90
2021/07/20 02:56:58;;;;;;;7.12;5.65;;;;;;;;;;143729;566;46012;-90
2021/07/20 02:59:26;;;;;;;9.77;6.30;;;;;;;;;;143727;571;46020;-89
2021/07/20 03:01:56;;;;;;;10.43;6.43;;;;;;;;;;143728;627;46012;-91
2021/07/20 03:04:23;;;;;;;9.18;6.03;;;;;;;;;;143718;593;47020;-91
2021/07/20 03:06:58;;;;;;;9.95;5.35;;;;;;;;;;143728;577;46013;-90
2021/07/20 03:09:26;;;;;;;11.98;5.78;;;;;;;;;;143728;592;47021;-89
2021/07/20 03:12:01;;;;;;;21.25;6.22;;;;;;;;;;143727;582;46012;-90
2021/07/20 03:14:30;;;;;;;10.35;6.32;;;;;;;;;;143723;635;47022;-90
2021/07/20 03:16:59;;;;;;;8.52;5.22;;;;;;;;;;143725;580;46021;-90
2021/07/20 03:19:28;;;;;;;10.52;6.28;;;;;;;;;;143726;585;46018;-90
2021/07/20 03:22:00;;;;;;;10.52;6.90;;;;;;;;;;143726;573;46013;-89
2021/07/20 03:24:29;;;;;;;12.73;5.70;;;;;;;;;;143722;635;47020;-89
2021/07/20 03:26:59;;;;;;;9.93;6.65;;;;;;;;;;143726;614;46020;-91
2021/07/20 03:29:27;;;;;;;12.13;7.57;;;;;;;;;;143718;589;46021;-90
2021/07/20 03:31:55;;;;;;;16.55;8.60;;;;;;;;;;143726;599;46018;-92
2021/07/20 03:34:23;;;;;;;14.23;7.72;;;;;;;;;;143719;571;47022;-90
2021/07/20 03:36:50;;;;;;;11.65;8.73;;;;;;;;;;143724;626;46021;-89
2021/07/20 03:39:24;;;;;;;7.15;5.93;;;;;;;;;;143725;573;46020;-90
2021/07/20 03:41:51;;;;;;;10.90;6.47;;;;;;;;;;143727;585;46012;-91
2021/07/20 03:44:20;;;;;;;11.77;6.12;;;;;;;;;;143721;613;47022;-89
2021/07/20 03:46:47;;;;;;;16.50;6.45;;;;;;;;;;143726;580;46012;-88
2021/07/20 03:49:14;;;;;;;15.10;7.03;;;;;;;;;;143722;597;46020;-91
2021/07/20 03:51:42;;;;;;;8.02;4.87;;;;;;;;;;143727;586;46019;-89
2021/07/20 03:54:09;;;;;;;9.60;6.07;;;;;;;;;;143717;613;47023;-90
2021/07/20 03:56:41;;;;;;;13.70;5.50;;;;;;;;;;143724;591;46019;-91
2021/07/20 03:59:08;;;;;;;10.98;5.82;;;;;;;;;;143721;570;47020;-90
2021/07/20 04:01:41;;;;;;;17.15;6.68;;;;;;;;;;143728;575;46012;-90
2021/07/20 04:04:13;;;;;;;8.30;4.72;;;;;;;;;;143723;638;47022;-91
2021/07/20 04:06:42;;;;;;;10.10;5.25;;;;;;;;;;143724;573;46013;-91
2021/07/20 04:09:10;;;;;;;13.18;5.87;;;;;;;;;;143724;569;46021;-89
2021/07/20 04:11:39;;;;;;;14.02;6.12;;;;;;;;;;143730;587;46020;-89
2021/07/20 04:14:06;;;;;;;20.30;5.85;;;;;;;;;;143720;597;47020;-89
2021/07/20 04:16:34;;;;;;;18.80;6.53;;;;;;;;;;143724;603;46021;-91
2021/07/20 04:19:04;;;;;;;16.85;6.62;;;;;;;;;;143717;586;47020;-88
2021/07/20 04:21:31;;;;;;;12.85;5.62;;;;;;;;;;143725;642;46020;-89
2021/07/20 04:23:59;;;;;;;10.95;6.40;;;;;;;;;;143722;617;47023;-91
2021/07/20 04:26:26;;;;;;;10.43;5.53;;;;;;;;;;143723;585;47020;-89
2021/07/20 04:28:55;;;;;;;16.37;6.10;;;;;;;;;;143722;601;47021;-89
2021/07/20 04:31:26;;;;;;;13.00;6.75;;;;;;;;;;143727;624;46012;-88
2021/07/20 04:33:53;;;;;;;13.73;5.78;;;;;;;;;;143723;574;47022;-89
2021/07/20 04:36:21;;;;;;;13.62;7.05;;;;;;;;;;143725;571;46012;-88
2021/07/20 04:38:48;;;;;;;12.45;6.65;;;;;;;;;;143723;590;46021;-88
2021/07/20 04:41:18;;;;;;;11.07;5.80;;;;;;;;;;143727;587;46014;-90
2021/07/20 04:43:45;;;;;;;12.75;6.22;;;;;;;;;;143716;570;47021;-89
2021/07/20 04:46:14;;;;;;;9.88;6.22;;;;;;;;;;143725;630;46012;-88
2021/07/20 04:48:41;;;;;;;8.57;5.95;;;;;;;;;;143720;580;47020;-89
2021/07/20 04:51:08;;;;;;;17.37;7.85;;;;;;;;;;143722;645;47020;-87
2021/07/20 04:53:38;;;;;;;11.68;5.95;;;;;;;;;;143722;612;46023;-89
2021/07/20 04:56:06;;;;;;;8.32;5.72;;;;;;;;;;143727;569;46010;-90
2021/07/20 04:58:34;;;;;;;7.70;5.93;;;;;;;;;;143724;577;46020;-87
2021/07/20 05:01:05;;;;;;;9.95;6.72;;;;;;;;;;143728;620;46018;-90
2021/07/20 05:03:35;;;;;;;10.07;6.30;;;;;;;;;;143722;627;47022;-89
2021/07/20 05:06:03;;;;;;;10.60;6.18;;;;;;;;;;143726;589;46012;-87
2021/07/20 05:08:34;;;;;;;9.85;5.97;;;;;;;;;;143718;564;46021;-87
2021/07/20 05:11:02;;;;;;;10.43;6.20;;;;;;;;;;143728;605;46012;-88
2021/07/20 05:13:29;;;;;;;9.45;7.12;;;;;;;;;;143722;607;46022;-89
2021/07/20 05:16:01;;;;;;;12.82;7.45;;;;;;;;;;143726;620;46022;-90
2021/07/20 05:18:28;;;;;;;10.27;6.68;;;;;;;;;;143723;569;46047;-91
2021/07/20 05:21:00;;;;;;;7.95;5.87;;;;;;;;;;143728;576;46020;-91
2021/07/20 05:23:28;;;;;;;18.58;7.28;;;;;;;;;;143723;613;47023;-91
2021/07/20 05:25:59;;;;;;;9.00;6.60;;;;;;;;;;143724;652;46012;-89
2021/07/20 05:28:27;;;;;;;10.77;6.22;;;;;;;;;;143723;616;47020;-89
2021/07/20 05:30:58;;;;;;;9.75;6.03;;;;;;;;;;143726;589;46012;-90
2021/07/20 05:33:25;;;;;;;11.38;5.65;;;;;;;;;;143717;569;47020;-89
2021/07/20 05:35:57;;;;;;;13.07;6.00;;;;;;;;;;143725;594;46019;-91
2021/07/20 05:38:25;;;;;;;8.43;5.80;;;;;;;;;;143719;623;47020;-90
2021/07/20 05:40:55;;;;;;;15.95;6.00;;;;;;;;;;143728;585;46020;-89
2021/07/20 05:43:25;;;;;;;11.10;6.80;;;;;;;;;;143726;583;46022;-89
2021/07/20 05:45:53;;;;;;;8.93;7.20;;;;;;;;;;143723;635;47020;-90
2021/07/20 05:48:22;;;;;;;10.63;5.60;;;;;;;;;;143724;644;46911;-90
2021/07/20 05:50:52;;;;;;;10.35;7.30;;;;;;;;;;143726;589;46013;-91
2021/07/20 05:53:22;;;;;;;11.00;7.28;;;;;;;;;;143725;585;46023;-89
2021/07/20 05:55:55;;;;;;;12.48;6.80;;;;;;;;;;143726;565;46012;-91
2021/07/20 05:58:23;;;;;;;10.68;6.45;;;;;;;;;;143719;564;46021;-90
2021/07/20 06:00:53;;;;;;;8.10;7.18;;;;;;;;;;143726;649;46018;-90
2021/07/20 06:03:22;;;;;;;7.68;6.35;;;;;;;;;;143714;675;47022;-90
2021/07/20 06:05:51;;;;;;;16.62;7.80;;;;;;;;;;143727;582;46021;-90
2021/07/20 06:08:21;;;;;;;10.35;6.28;;;;;;;;;;143723;588;46021;-89
2021/07/20 06:10:59;;;;;;;9.77;6.07;;;;;;;;;;143728;579;46020;-89
2021/07/20 06:13:30;;;;;;;8.57;5.85;;;;;;;;;;143720;592;47022;-91
2021/07/20 06:15:58;;;;;;;11.23;6.18;;;;;;;;;;143726;664;46020;-88
2021/07/20 06:18:26;;;;;;;8.75;6.50;;;;;;;;;;143721;785;47020;-90
2021/07/20 06:21:02;;;;;;;7.05;5.80;;;;;;;;;;143727;724;46020;-89
2021/07/20 06:23:39;;;;;;;10.13;6.47;;;;;;;;;;143718;592;47020;-88
2021/07/20 06:26:28;;;;;;;14.13;6.55;;;;;;;;;;143725;569;46012;-90
2021/07/20 06:29:00;;;;;;;9.02;5.95;;;;;;;;;;143726;910;46021;-90
2021/07/20 06:31:28;;;;;;;9.15;5.62;;;;;;;;;;143723;952;47020;-87
2021/07/20 06:33:56;;;;;;;14.48;6.53;;;;;;;;;;143727;643;48022;-91
2021/07/20 06:36:24;;;;;;;10.85;6.53;;;;;;;;;;143727;979;46013;-90
2021/07/20 06:38:53;;;;;;;22.98;20.58;;;;;;;;;;143722;657;46020;-92
2021/07/20 06:41:20;;;;;;;11.18;6.75;;;;;;;;;;143727;593;46012;-92
2021/07/20 06:43:47;;;;;;;15.93;7.28;;;;;;;;;;143724;570;47022;-89
2021/07/20 06:46:17;;;;;;;11.80;7.60;;;;;;;;;;143725;569;46012;-91
2021/07/20 06:48:46;;;;;;;10.00;7.25;;;;;;;;;;143720;577;46020;-91
2021/07/20 06:51:27;;;;;;;11.45;6.60;;;;;;;;;;143729;599;46011;-89
2021/07/20 06:54:10;;;;;;;14.45;6.85;;;;;;;;;;143730;765;45023;-89
2021/07/20 06:56:55;;;;;;;11.10;7.47;;;;;;;;;;143729;573;45916;-89
2021/07/20 06:59:26;;;;;;;12.13;7.10;;;;;;;;;;143723;587;46021;-93
2021/07/20 07:01:54;;;;;;;11.77;6.62;;;;;;;;;;143725;598;46020;-88
2021/07/20 07:04:38;;;;;;;8.68;6.47;;;;;;;;;;143722;590;47022;-90
2021/07/20 07:07:06;;;;;;;16.75;6.80;;;;;;;;;;143724;569;47012;-90
2021/07/20 07:09:33;;;;;;;14.90;7.03;;;;;;;;;;143726;577;46020;-89
2021/07/20 07:12:00;;;;;;;8.23;6.62;;;;;;;;;;143723;573;46012;-91
2021/07/20 07:14:30;;;;;;;9.10;6.53;;;;;;;;;;143719;623;46020;-91
2021/07/20 07:16:57;;;;;;;14.50;6.35;;;;;;;;;;143724;658;46917;-89
2021/07/20 07:19:24;;;;;;;14.38;7.18;;;;;;;;;;143722;587;47020;-90
2021/07/20 07:21:52;;;;;;;12.05;7.40;;;;;;;;;;143727;647;46012;-89
2021/07/20 07:24:20;;;;;;;14.23;7.03;;;;;;;;;;143720;595;47022;-87
2021/07/20 07:26:48;;;;;;;13.55;6.45;;;;;;;;;;143720;571;47020;-89
2021/07/20 07:29:17;;;;;;;9.23;7.18;;;;;;;;;;143723;704;46021;-86
2021/07/20 07:31:48;;;;;;;12.73;6.78;;;;;;;;;;143727;571;46012;-88
2021/07/20 07:34:16;;;;;;;8.70;7.05;;;;;;;;;;143721;578;47022;-88
2021/07/20 07:36:45;;;;;;;12.02;7.37;;;;;;;;;;143724;641;46012;-88
2021/07/20 07:39:14;;;;;;;12.35;6.45;;;;;;;;;;143718;572;47020;-87
2021/07/20 07:41:42;;;;;;;10.57;7.30;;;;;;;;;;143727;667;46012;-90
2021/07/20 07:44:11;;;;;;;9.95;6.37;;;;;;;;;;143724;580;46035;-87
2021/07/20 07:46:40;;;;;;;11.82;7.30;;;;;;;;;;143725;652;46916;-89
2021/07/20 07:49:09;;;;;;;9.02;5.95;;;;;;;;;;143722;585;46020;-87
2021/07/20 07:51:39;;;;;;;7.68;6.85;;;;;;;;;;143727;595;46021;-88
2021/07/20 07:54:06;;;;;;;16.73;7.60;;;;;;;;;;143723;647;46022;-87
2021/07/20 07:56:33;;;;;;;10.98;6.35;;;;;;;;;;143727;587;46012;-87
2021/07/20 07:59:00;;;;;;;14.57;6.40;;;;;;;;;;143723;605;46021;-86
2021/07/20 08:01:29;;;;;;;8.65;6.20;;;;;;;;;;143727;582;46012;-87
2021/07/20 08:03:57;;;;;;;9.52;5.93;;;;;;;;;;143719;569;46014;-88
2021/07/20 08:06:26;;;;;;;11.85;7.22;;;;;;;;;;143726;603;46012;-88
2021/07/20 08:08:55;;;;;;;10.07;6.47;;;;;;;;;;143721;559;46020;-87
2021/07/20 08:11:24;;;;;;;13.52;6.87;;;;;;;;;;143727;594;46018;-89
2021/07/20 08:13:57;;;;;;;7.35;5.93;;;;;;;;;;143720;725;47021;-88
2021/07/20 08:16:25;;;;;;;8.48;6.40;;;;;;;;;;143722;596;46012;-87
2021/07/20 08:18:54;;;;;;;8.23;6.12;;;;;;;;;;143723;590;46020;-88
2021/07/20 08:21:21;;;;;;;16.70;6.57;;;;;;;;;;143726;564;46013;-90
2021/07/20 08:23:47;;;;;;;10.27;7.22;;;;;;;;;;143722;592;47020;-88
2021/07/20 08:26:20;;;;;;;11.52;6.18;;;;;;;;;;143725;569;46012;-89
2021/07/20 08:29:18;;;;;;;;;;;;;;;;;;143724;972;46021;-89
2021/07/20 08:31:52;;;;;;;12.15;6.12;;;;;;;;;;143731;972;46012;-91
2021/07/20 08:34:21;;;;;;;10.70;6.28;;;;;;;;;;143722;593;46910;-91
2021/07/20 08:36:49;;;;;;;10.68;6.53;;;;;;;;;;143727;577;46012;-90
2021/07/20 08:39:17;;;;;;;12.52;5.78;;;;;;;;;;143720;565;47020;-91
2021/07/20 08:42:24;;;;;;;8.70;6.32;;;;;;;;;;143726;557;46020;-92
2021/07/20 08:45:14;;;;;;;10.82;5.85;;;;;;;;;;143722;668;47020;-93
2021/07/20 08:48:11;;;;;;;9.02;5.93;;;;;;;;;;143727;611;46012;-90
2021/07/20 08:50:51;;;;;;;8.93;6.22;;;;;;;;;;143725;579;46015;-92
2021/07/20 08:53:49;;;;;;;10.10;5.57;;;;;;;;;;143727;595;46012;-91
2021/07/20 08:56:20;;;;;;;10.65;6.00;;;;;;;;;;143718;665;47022;-92
2021/07/20 08:58:51;;;;;;;10.38;6.65;;;;;;;;;;143723;630;46020;-94
2021/07/20 09:01:32;;;;;;;6.65;6.00;;;;;;;;;;143723;599;46020;-89
2021/07/20 09:04:07;;;;;;;7.97;5.43;;;;;;;;;;143724;573;46020;-92
2021/07/20 09:06:57;;;;;;;6.28;5.55;;;;;;;;;;143726;566;46021;-91
2021/07/20 09:09:28;;;;;;;6.37;5.70;;;;;;;;;;143722;573;46020;-89
2021/07/20 09:12:14;;;;;;;7.90;6.40;;;;;;;;;;143722;596;47020;-93
2021/07/20 09:15:20;;;;;;;9.98;5.55;;;;;;;;;;143727;580;46012;-93
2021/07/20 09:18:30;;;;;;;8.80;5.78;;;;;;;;;;143722;592;47020;-90
2021/07/20 09:21:14;;;;;;;7.95;5.85;;;;;;;;;;143723;566;47021;-92
2021/07/20 09:24:22;;;;;;;14.13;6.05;;;;;;;;;;143720;579;46020;-93
2021/07/20 09:27:06;;;;;;;7.60;5.30;;;;;;;;;;143728;574;46020;-90
2021/07/20 09:29:41;;;;;;;12.00;6.00;;;;;;;;;;143726;613;47023;-91
2021/07/20 09:32:47;;;;;;;9.20;5.65;;;;;;;;;;143727;699;46012;-91
2021/07/20 09:35:29;;;;;;;11.98;5.72;;;;;;;;;;143724;589;47021;-90
2021/07/20 09:38:46;;;;;;;11.05;6.10;;;;;;;;;;143725;742;46046;-93
2021/07/20 09:41:39;;;;;;;6.82;5.05;;;;;;;;;;143723;576;47022;-91
2021/07/20 09:44:25;;;;;;;9.98;4.57;;;;;;;;;;143727;693;46020;-91
2021/07/20 09:47:05;;;;;;;9.52;6.37;;;;;;;;;;143725;722;46020;-91
2021/07/20 09:53:17;;;;;;;9.45;5.72;;;;;;;;;;143724;589;46047;-68
2021/07/20 09:56:35;;;;;;;10.30;5.70;;;;;;;;;;143729;646;46012;-69
2021/07/20 09:59:35;;;;;;;8.32;5.32;;;;;;;;;;143724;608;46021;-67
2021/07/20 10:02:10;;;;;;;7.90;4.55;;;;;;;;;;143729;883;46033;-68
2021/07/20 10:04:52;;;;;;;8.35;6.03;;;;;;;;;;143726;570;46021;-68
2021/07/20 10:07:40;;;;;;;5.80;5.20;;;;;;;;;;143727;589;46012;-66
2021/07/20 10:10:23;;;;;;;10.43;5.97;;;;;;;;;;143724;590;46020;-66
2021/07/20 10:13:29;;;;;;;10.75;5.82;;;;;;;;;;143726;649;46013;-66
2021/07/20 10:16:23;;;;;;;9.35;5.30;;;;;;;;;;143723;570;47022;-66
2021/07/20 10:19:37;;;;;;;7.37;5.72;;;;;;;;;;143727;577;46012;-68
2021/07/20 10:22:07;;;;;;;6.70;5.68;;;;;;;;;;143723;663;46020;-70
2021/07/20 10:24:39;;;;;;;7.95;6.10;;;;;;;;;;143727;660;46012;-65
2021/07/20 10:27:11;;;;;;;7.53;5.75;;;;;;;;;;143724;589;46022;-68
2021/07/20 10:30:06;;;;;;;5.75;5.12;;;;;;;;;;143731;576;46012;-69
2021/07/20 10:33:12;;;;;;;6.07;5.30;;;;;;;;;;143726;640;46020;-68
2021/07/20 10:35:53;;;;;;;10.15;5.68;;;;;;;;;;143728;595;46012;-68
2021/07/20 10:38:27;;;;;;;10.55;5.25;;;;;;;;;;143724;758;46043;-67
2021/07/20 10:40:56;;;;;;;10.68;5.03;;;;;;;;;;143728;630;46021;-67
2021/07/20 10:43:41;;;;;;;7.57;5.72;;;;;;;;;;143725;580;46020;-66
2021/07/20 10:46:11;;;;;;;11.20;5.82;;;;;;;;;;143729;590;46012;-68
2021/07/20 10:48:42;;;;;;;7.15;4.75;;;;;;;;;;143724;693;46022;-68
2021/07/20 10:51:41;;;;;;;9.73;4.87;;;;;;;;;;143726;564;46012;-66
2021/07/20 10:54:46;;;;;;;9.20;5.20;;;;;;;;;;143724;570;46020;-70
2021/07/20 10:57:33;;;;;;;7.32;4.55;;;;;;;;;;143728;583;46013;-68
2021/07/20 11:00:15;;;;;;;9.82;4.80;;;;;;;;;;143726;566;46022;-67
2021/07/20 11:03:06;;;;;;;10.25;4.43;;;;;;;;;;143728;563;46020;-68
2021/07/20 11:05:35;;;;;;;6.68;4.90;;;;;;;;;;143723;751;46021;-65
2021/07/20 11:08:05;;;;;;;12.02;4.95;;;;;;;;;;143730;564;46012;-68
2021/07/20 11:10:45;;;;;;;8.63;4.85;;;;;;;;;;143724;567;46022;-67
2021/07/20 11:13:16;;;;;;;7.70;4.65;;;;;;;;;;143727;577;46012;-68
2021/07/20 11:15:51;;;;;;;12.23;4.68;;;;;;;;;;143727;584;46020;-69
2021/07/20 11:18:18;;;;;;;8.00;4.35;;;;;;;;;;143728;576;46013;-68
2021/07/20 11:20:45;;;;;;;11.55;4.50;;;;;;;;;;143726;743;46023;-69
2021/07/20 11:23:15;;;;;;;6.82;4.57;;;;;;;;;;143728;586;46012;-68
2021/07/20 11:25:42;;;;;;;7.43;4.75;;;;;;;;;;143725;621;46020;-70
2021/07/20 11:28:09;;;;;;;7.65;4.57;;;;;;;;;;143729;600;46013;-69
2021/07/20 11:30:39;;;;;;;7.53;4.47;;;;;;;;;;143725;564;46022;-69
2021/07/20 11:33:15;;;;;;;5.93;4.07;;;;;;;;;;143730;565;46013;-69
2021/07/20 11:35:44;;;;;;;6.22;4.03;;;;;;;;;;143725;576;47020;-67
2021/07/20 11:38:17;;;;;;;8.73;4.47;;;;;;;;;;143728;598;46012;-70
2021/07/20 11:41:16;;;;;;;7.97;4.30;;;;;;;;;;143727;596;46022;-68
2021/07/20 11:44:10;;;;;;;4.30;3.60;;;;;;;;;;143728;703;46012;-69
2021/07/20 11:47:02;;;;;;;12.65;4.05;;;;;;;;;;143726;566;46020;-66
2021/07/20 11:49:37;;;;;;;7.35;4.05;;;;;;;;;;143729;594;46013;-65
2021/07/20 11:52:09;;;;;;;10.05;3.97;;;;;;;;;;143726;576;46022;-66
2021/07/20 11:55:09;;;;;;;8.00;3.87;;;;;;;;;;143728;632;46012;-65
2021/07/20 11:58:18;;;;;;;5.10;3.20;;;;;;;;;;143726;625;46045;-65
2021/07/20 12:01:22;;;;;;;5.57;3.10;;;;;;;;;;143728;624;46012;-66
2021/07/20 12:04:36;;;;;;;6.00;3.22;;;;;;;;;;143726;638;46022;-66
2021/07/20 12:07:41;;;;;;;5.97;3.33;;;;;;;;;;143728;587;46012;-66
2021/07/20 12:10:30;;;;;;;5.62;3.17;;;;;;;;;;143724;652;46020;-66
2021/07/20 12:12:57;;;;;;;5.45;2.83;;;;;;;;;;143727;599;46012;-68
2021/07/20 12:15:26;;;;;;;8.75;3.15;;;;;;;;;;143724;569;47020;-66
2021/07/20 12:17:54;;;;;;;5.15;2.80;;;;;;;;;;143730;579;46013;-67
2021/07/20 12:20:22;;;;;;;9.25;3.50;;;;;;;;;;143725;582;46021;-69
2021/07/20 12:22:53;;;;;;;11.90;3.70;;;;;;;;;;143730;691;46012;-67
2021/07/20 12:25:22;;;;;;;7.75;3.58;;;;;;;;;;143726;692;47020;-66
2021/07/20 12:27:50;;;;;;;5.32;3.42;;;;;;;;;;143733;601;46012;-67
2021/07/20 12:30:18;;;;;;;4.90;2.92;;;;;;;;;;143725;610;46020;-65
2021/07/20 12:32:45;;;;;;;6.15;2.80;;;;;;;;;;143731;671;46013;-66
2021/07/20 12:35:15;;;;;;;5.32;2.47;;;;;;;;;;143726;668;46023;-65
2021/07/20 12:37:41;;;;;;;5.78;2.75;;;;;;;;;;143730;600;46032;-67
2021/07/20 12:40:12;;;;;;;5.25;2.50;;;;;;;;;;143728;580;46021;-66
2021/07/20 12:42:40;;;;;;;6.40;2.62;;;;;;;;;;143728;564;46012;-65
2021/07/20 12:45:12;;;;;;;4.37;2.53;;;;;;;;;;143724;601;46022;-69
2021/07/20 12:47:44;;;;;;;2.83;2.53;;;;;;;;;;143729;577;46013;-70
2021/07/20 12:50:13;;;;;;;6.12;2.65;;;;;;;;;;143727;578;46020;-67
2021/07/20 12:52:42;;;;;;;3.20;2.70;;;;;;;;;;143728;618;46012;-67
2021/07/20 12:55:14;;;;;;;5.20;2.50;;;;;;;;;;143725;643;46022;-68
2021/07/20 12:57:55;;;;;;;5.22;2.30;;;;;;;;;;143728;690;46012;-68
2021/07/20 13:00:29;;;;;;;5.87;3.45;;;;;;;;;;143726;628;46020;-68
2021/07/20 13:03:03;;;;;;;9.48;3.70;;;;;;;;;;143728;586;46013;-67
2021/07/20 13:05:30;;;;;;;4.55;3.33;;;;;;;;;;143726;585;46023;-69
2021/07/20 13:08:00;;;;;;;5.18;3.55;;;;;;;;;;143731;585;46012;-70
2021/07/20 13:10:33;;;;;;;3.50;2.90;;;;;;;;;;143723;584;46021;-68
2021/07/20 13:13:03;;;;;;;14.15;4.15;;;;;;;;;;143730;697;46020;-66
2021/07/20 13:15:29;;;;;;;10.50;4.20;;;;;;;;;;143722;588;47020;-68
2021/07/20 13:18:01;;;;;;;7.97;3.72;;;;;;;;;;143731;579;46919;-67
2021/07/20 13:20:33;;;;;;;5.90;3.35;;;;;;;;;;143729;571;46014;-66
2021/07/20 13:22:59;;;;;;;;;;;;;;;;;;143734;971;46012;-66
2021/07/20 13:25:27;;;;;;;4.90;3.10;;;;;;;;;;143730;698;46022;-68
2021/07/20 13:27:55;;;;;;;9.23;3.28;;;;;;;;;;143728;633;46012;-66
2021/07/20 13:30:29;;;;;;;4.35;2.95;;;;;;;;;;143725;661;46020;-67
2021/07/20 13:32:56;;;;;;;6.47;3.37;;;;;;;;;;143730;584;46010;-68
2021/07/20 13:35:24;;;;;;;9.60;3.10;;;;;;;;;;143725;565;46023;-67
2021/07/20 13:37:55;;;;;;;4.37;3.03;;;;;;;;;;143728;583;46012;-66
2021/07/20 13:40:26;;;;;;;8.43;3.25;;;;;;;;;;143725;581;46021;-66
2021/07/20 13:42:53;;;;;;;4.68;3.25;;;;;;;;;;143732;582;46012;-66
2021/07/20 13:45:22;;;;;;;4.00;2.85;;;;;;;;;;143727;581;46022;-68
2021/07/20 13:48:02;;;;;;;4.22;2.55;;;;;;;;;;143731;587;46013;-67
2021/07/20 13:50:34;;;;;;;8.00;3.00;;;;;;;;;;143728;595;46018;-66
2021/07/20 13:53:02;;;;;;;;;;;;;;;;;;143734;978;46010;-66
2021/07/20 13:55:30;;;;;;;4.37;2.62;;;;;;;;;;143731;642;46022;-64
2021/07/20 13:57:58;;;;;;;5.62;2.85;;;;;;;;;;143731;574;46012;-67
2021/07/20 14:00:27;;;;;;;4.90;3.60;;;;;;;;;;143728;563;46020;-67
2021/07/20 14:02:57;;;;;;;13.13;3.85;;;;;;;;;;143729;583;46020;-65
2021/07/20 14:05:25;;;;;;;5.75;3.60;;;;;;;;;;143728;579;46022;-66
2021/07/20 14:07:52;;;;;;;5.10;3.45;;;;;;;;;;143729;647;46012;-68
2021/07/20 14:10:20;;;;;;;6.55;4.12;;;;;;;;;;143728;594;46021;-67
2021/07/20 14:12:47;;;;;;;7.10;3.85;;;;;;;;;;143733;671;46012;-67
2021/07/20 14:15:15;;;;;;;5.10;3.70;;;;;;;;;;143724;627;46022;-67
2021/07/20 14:17:43;;;;;;;6.03;4.03;;;;;;;;;;143731;594;46013;-68
2021/07/20 14:20:13;;;;;;;7.55;3.83;;;;;;;;;;143727;581;46020;-68
2021/07/20 14:22:40;;;;;;;4.95;3.60;;;;;;;;;;143731;599;46012;-68
2021/07/20 14:25:08;;;;;;;6.00;4.07;;;;;;;;;;143727;708;47021;-67
2021/07/20 14:27:36;;;;;;;7.32;4.00;;;;;;;;;;143730;606;46012;-66
2021/07/20 14:30:10;;;;;;;6.68;3.65;;;;;;;;;;143724;613;46020;-68
2021/07/20 14:32:38;;;;;;;4.85;3.17;;;;;;;;;;143732;570;46013;-68
2021/07/20 14:35:06;;;;;;;8.48;3.80;;;;;;;;;;143725;688;46023;-65
2021/07/20 14:37:37;;;;;;;3.87;3.05;;;;;;;;;;143728;609;46020;-64
2021/07/20 14:40:10;;;;;;;5.18;2.87;;;;;;;;;;143725;696;46021;-65
2021/07/20 14:42:37;;;;;;;4.28;3.22;;;;;;;;;;143732;569;46018;-64
2021/07/20 14:45:13;;;;;;;7.40;3.65;;;;;;;;;;143726;564;46022;-64
2021/07/20 14:48:00;;;;;;;6.30;3.87;;;;;;;;;;143729;570;46013;-66
2021/07/20 14:50:40;;;;;;;6.65;3.65;;;;;;;;;;143729;646;46014;-64
2021/07/20 14:53:22;;;;;;;8.23;3.80;;;;;;;;;;143729;565;46012;-65
2021/07/20 14:55:50;;;;;;;7.50;3.93;;;;;;;;;;143727;669;47023;-65
2021/07/20 14:58:22;;;;;;;4.97;3.85;;;;;;;;;;143732;644;46012;-65
2021/07/20 15:01:13;;;;;;;6.62;4.18;;;;;;;;;;143725;629;46022;-66
2021/07/20 15:03:45;;;;;;;7.90;3.85;;;;;;;;;;143730;606;46019;-64
2021/07/20 15:06:29;;;;;;;3.97;3.12;;;;;;;;;;143724;582;46022;-66
2021/07/20 15:09:01;;;;;;;4.62;3.20;;;;;;;;;;143731;634;46013;-66
2021/07/20 15:11:47;;;;;;;;;;;;;;;;;;143730;978;46021;-67
2021/07/20 15:14:20;;;;;;;7.37;3.08;;;;;;;;;;143735;661;46012;-65
2021/07/20 15:16:50;;;;;;;6.65;3.55;;;;;;;;;;143725;601;46051;-65
2021/07/20 15:19:34;;;;;;;6.37;3.05;;;;;;;;;;143732;573;46012;-65
2021/07/20 15:22:20;;;;;;;8.50;4.30;;;;;;;;;;143725;575;46020;-64
2021/07/20 15:24:52;;;;;;;4.47;3.72;;;;;;;;;;143731;566;46020;-65
2021/07/20 15:27:21;;;;;;;10.13;4.55;;;;;;;;;;143726;582;46023;-65